Time;durP1;ratioP1;P1;durP2;ratioP2;P2;SDS_P1;SDS_P2;PMS_P1;PMS_P2;Temp;Humidity;BMP_temperature;BMP_pressure;BME280_temperature;BME280_humidity;BME280_pressure;Samples;Min_cycle;Max_cycle;Signal;HPM_P1;HPM_P2
2022/06/20 00:01:53;;;;;;;40.33;13.45;;;;;;;16.53;61.39;95062.59;5013912;28;20447;-76
2022/06/20 00:04:19;;;;;;;23.35;12.32;;;;;;;16.55;61.00;95065.75;5023069;28;20503;-75
2022/06/20 00:06:44;;;;;;;32.05;13.63;;;;;;;16.54;61.50;95056.28;5049152;28;20025;-75
2022/06/20 00:09:10;;;;;;;36.08;15.15;;;;;;;16.52;61.75;95066.28;4989569;28;20025;-75
2022/06/20 00:11:47;;;;;;;35.20;11.48;;;;;;;16.48;61.36;95065.22;5011993;23;20053;-75
2022/06/20 00:14:18;;;;;;;15.30;6.32;;;;;;;16.41;61.43;95067.31;4986514;28;20527;-75
2022/06/20 00:16:43;;;;;;;14.25;5.22;;;;;;;16.37;61.32;95061.00;5047867;22;20042;-76
2022/06/20 00:19:12;;;;;;;12.13;5.50;;;;;;;16.37;61.60;95061.00;5011328;28;20041;-76
2022/06/20 00:21:38;;;;;;;19.17;8.65;;;;;;;16.37;61.35;95055.75;5028588;28;20037;-76
2022/06/20 00:24:03;;;;;;;16.23;5.82;;;;;;;16.37;61.12;95059.19;4995031;28;20053;-76
2022/06/20 00:26:29;;;;;;;7.60;3.97;;;;;;;16.41;60.85;95054.19;4995081;28;20037;-75
2022/06/20 00:28:55;;;;;;;5.90;3.17;;;;;;;16.40;60.52;95058.66;4994833;28;20033;-75
2022/06/20 00:31:21;;;;;;;11.00;5.88;;;;;;;16.43;60.91;95057.34;4994045;28;20112;-75
2022/06/20 00:33:47;;;;;;;15.13;9.10;;;;;;;16.39;61.03;95051.81;5011122;28;20594;-75
2022/06/20 00:36:12;;;;;;;26.20;10.43;;;;;;;16.33;61.60;95052.09;4994653;28;20034;-75
2022/06/20 00:38:38;;;;;;;20.75;9.55;;;;;;;16.34;61.68;95048.41;4994508;28;20037;-74
2022/06/20 00:41:09;;;;;;;11.88;7.07;;;;;;;16.32;61.71;95040.03;4994633;28;20026;-74
2022/06/20 00:43:42;;;;;;;12.20;6.78;;;;;;;16.32;61.50;95040.03;4978771;28;20129;-75
2022/06/20 00:46:10;;;;;;;14.25;8.68;;;;;;;16.30;61.57;95047.38;5000010;28;20049;-75
2022/06/20 00:48:50;;;;;;;26.45;8.85;;;;;;;16.25;62.03;95045.50;4980621;28;20477;-75
2022/06/20 00:51:28;;;;;;;22.40;9.75;;;;;;;16.28;62.20;95046.84;4995548;28;20117;-75
2022/06/20 00:53:58;;;;;;;15.13;7.20;;;;;;;16.28;62.07;95044.22;4997150;28;20038;-75
2022/06/20 00:56:33;;;;;;;17.73;7.38;;;;;;;16.22;62.05;95040.78;5014471;28;20509;-75
2022/06/20 00:59:11;;;;;;;12.60;6.90;;;;;;;16.15;62.78;95048.94;5013158;28;20033;-75
2022/06/20 01:01:40;;;;;;;14.05;7.03;;;;;;;16.13;62.62;95039.75;4989907;28;20160;-75
2022/06/20 01:04:31;;;;;;;14.23;7.18;;;;;;;16.08;62.78;95035.25;5014200;28;20107;-76
2022/06/20 01:06:57;;;;;;;14.82;6.50;;;;;;;16.08;63.20;95040.50;5014636;28;20470;-75
2022/06/20 01:09:25;;;;;;;19.40;6.95;;;;;;;16.08;62.99;95035.25;5000931;28;20040;-75
2022/06/20 01:11:55;;;;;;;12.18;6.88;;;;;;;16.05;63.31;95033.16;5003791;28;20041;-75
2022/06/20 01:14:26;;;;;;;13.63;6.85;;;;;;;16.06;63.22;95031.31;4998529;28;20029;-75
2022/06/20 01:16:53;;;;;;;15.98;5.80;;;;;;;16.08;63.24;95030.00;5013665;28;20034;-75
2022/06/20 01:19:46;;;;;;;11.73;5.47;;;;;;;16.11;62.87;95029.50;4979644;28;20053;-75
2022/06/20 01:22:31;;;;;;;16.60;5.45;;;;;;;16.14;62.74;95029.00;5016440;28;20103;-74
2022/06/20 01:25:34;;;;;;;26.55;8.75;;;;;;;16.20;63.14;95030.56;5014774;28;20422;-75
2022/06/20 01:27:59;;;;;;;19.00;9.90;;;;;;;16.15;62.89;95035.81;5031072;28;20033;-76
2022/06/20 01:30:29;;;;;;;18.40;9.80;;;;;;;16.10;62.71;95033.16;4996639;28;20547;-75
2022/06/20 01:32:58;;;;;;;40.10;19.50;;;;;;;16.03;62.94;95027.38;4996719;28;20063;-75
2022/06/20 01:38:08;;;;;;;55.05;29.52;;;;;;;15.97;63.29;95043.41;5016517;28;20036;-76
2022/06/20 01:40:34;;;;;;;71.63;36.22;;;;;;;15.93;63.46;95035.22;5013117;28;20067;-76
2022/06/20 01:42:59;;;;;;;55.80;31.55;;;;;;;15.88;63.71;95037.84;4996013;28;20030;-75
2022/06/20 01:48:11;;;;;;;26.65;14.10;;;;;;;15.85;63.72;95035.75;5002416;28;20052;-77
2022/06/20 01:50:37;;;;;;;19.27;10.30;;;;;;;15.81;63.65;95030.25;5031081;28;20045;-77
2022/06/20 01:53:03;;;;;;;16.42;7.63;;;;;;;15.80;62.94;95027.88;5029447;28;20026;-76
2022/06/20 01:55:29;;;;;;;17.85;7.78;;;;;;;15.78;63.57;95035.19;5013278;28;20045;-76
2022/06/20 01:57:55;;;;;;;26.05;9.52;;;;;;;15.74;63.82;95028.91;4996143;28;20083;-76
2022/06/20 02:00:22;;;;;;;23.02;10.80;;;;;;;15.72;63.19;95038.84;5012909;28;20033;-76
2022/06/20 02:02:50;;;;;;;24.58;10.27;;;;;;;15.68;63.71;95043.03;5030935;28;20124;-76
2022/06/20 02:05:18;;;;;;;28.23;8.20;;;;;;;15.65;63.17;95036.50;4972596;28;20397;-76
2022/06/20 02:07:43;;;;;;;13.32;6.45;;;;;;;15.61;63.56;95030.94;4996867;28;20120;-76
2022/06/20 02:10:10;;;;;;;10.45;5.80;;;;;;;15.58;64.25;95034.06;5012881;28;20044;-76
2022/06/20 02:15:04;;;;;;;28.95;8.10;;;;;;;15.46;64.41;95032.72;5036162;22;20073;-76
2022/06/20 02:17:37;;;;;;;25.55;7.25;;;;;;;15.45;64.67;95026.66;4997404;28;20109;-76
2022/06/20 02:20:05;;;;;;;22.42;6.43;;;;;;;15.45;64.84;95031.13;4991005;28;20073;-76
2022/06/20 02:22:31;;;;;;;10.43;5.82;;;;;;;15.43;65.15;95033.22;4958219;28;20133;-76
2022/06/20 02:25:05;;;;;;;29.23;7.00;;;;;;;15.36;65.20;95028.22;4956941;28;20513;-76
2022/06/20 02:27:33;;;;;;;15.70;5.95;;;;;;;15.29;65.22;95038.13;5025429;23;20096;-76
2022/06/20 02:30:01;;;;;;;17.00;5.85;;;;;;;15.27;65.43;95032.38;5018816;28;20511;-76
2022/06/20 02:32:28;;;;;;;17.88;6.80;;;;;;;15.21;65.05;95028.16;5013310;28;20156;-76
2022/06/20 02:34:53;;;;;;;19.30;7.82;;;;;;;15.18;65.77;95020.81;5009575;28;20045;-76
2022/06/20 02:37:25;;;;;;;29.40;8.02;;;;;;;15.18;65.68;95023.44;4976271;28;20088;-76
2022/06/20 02:39:52;;;;;;;32.00;9.85;;;;;;;15.15;65.80;95022.13;4977415;28;20030;-76
2022/06/20 02:42:25;;;;;;;33.47;9.15;;;;;;;15.13;65.97;95023.38;4992468;28;20029;-77
2022/06/20 02:44:50;;;;;;;15.13;7.35;;;;;;;15.11;66.26;95026.25;5008758;28;20034;-77
2022/06/20 02:47:16;;;;;;;23.42;6.90;;;;;;;15.09;65.97;95027.56;4968653;28;20513;-76
2022/06/20 02:49:41;;;;;;;22.13;7.05;;;;;;;15.11;65.49;95022.84;5009038;28;20029;-77
2022/06/20 02:52:07;;;;;;;24.90;6.47;;;;;;;15.08;65.98;95021.53;5008596;28;20489;-76
2022/06/20 02:54:34;;;;;;;19.35;6.97;;;;;;;15.01;66.57;95024.41;4992916;28;20049;-76
2022/06/20 02:57:07;;;;;;;21.15;6.25;;;;;;;15.01;66.52;95021.00;5050698;23;20049;-76
2022/06/20 02:59:40;;;;;;;27.10;7.63;;;;;;;15.02;66.02;95033.81;5039321;28;20033;-76
2022/06/20 03:02:09;;;;;;;32.33;8.00;;;;;;;14.98;66.25;95032.75;5014136;28;20034;-76
2022/06/20 03:04:35;;;;;;;17.85;7.55;;;;;;;14.94;66.46;95034.28;5022207;28;20037;-76
2022/06/20 03:07:05;;;;;;;22.23;7.50;;;;;;;14.93;66.33;95035.34;5021462;28;20029;-76
2022/06/20 03:09:32;;;;;;;30.52;8.23;;;;;;;14.90;66.56;95032.44;5046112;28;20040;-76
2022/06/20 03:11:57;;;;;;;23.40;8.35;;;;;;;14.90;67.23;95037.66;5030301;23;20053;-76
2022/06/20 03:14:36;;;;;;;18.10;7.80;;;;;;;14.92;66.55;95027.72;5027886;28;20040;-76
2022/06/20 03:17:01;;;;;;;17.35;8.27;;;;;;;14.97;66.68;95030.41;5026789;28;20056;-75
2022/06/20 03:19:31;;;;;;;22.75;8.10;;;;;;;14.99;66.61;95023.88;5014353;28;20428;-76
2022/06/20 03:21:57;;;;;;;17.38;7.78;;;;;;;15.04;66.23;95023.09;4999668;28;20141;-76
2022/06/20 03:24:24;;;;;;;20.85;7.55;;;;;;;15.12;66.01;95024.44;4995589;28;20048;-76
2022/06/20 03:26:51;;;;;;;22.60;7.07;;;;;;;15.15;66.09;95026.56;4995479;28;20029;-75
2022/06/20 03:29:17;;;;;;;15.45;5.82;;;;;;;15.19;65.92;95032.88;4995503;28;21030;-76
2022/06/20 03:31:43;;;;;;;17.85;6.22;;;;;;;15.26;65.85;95028.16;4994233;28;20046;-76
2022/06/20 03:34:08;;;;;;;23.27;6.47;;;;;;;15.27;66.03;95024.50;4995363;28;20113;-76
2022/06/20 03:36:34;;;;;;;19.65;7.28;;;;;;;15.37;65.95;95024.56;5011083;28;20493;-76
2022/06/20 03:39:00;;;;;;;30.67;7.32;;;;;;;15.39;65.93;95024.31;5029952;28;20481;-77
2022/06/20 03:41:26;;;;;;;33.17;7.95;;;;;;;15.48;65.68;95026.19;5012633;28;20040;-76
2022/06/20 03:44:03;;;;;;;33.42;6.85;;;;;;;15.56;65.45;95030.91;4996907;28;20066;-76
2022/06/20 03:46:31;;;;;;;41.78;7.85;;;;;;;15.64;65.36;95036.75;5167466;23;20034;-77
2022/06/20 03:48:58;;;;;;;29.35;6.97;;;;;;;15.74;65.03;95029.69;5028633;28;20519;-78
2022/06/20 03:51:27;;;;;;;28.02;6.03;;;;;;;15.85;64.27;95033.13;5028078;28;20037;-79
2022/06/20 03:54:15;;;;;;;4.20;3.80;;;;;;;15.93;61.57;95029.19;5011607;28;20029;-80
2022/06/20 03:56:55;;;;;;;12.13;4.50;;;;;;;15.99;61.54;95028.97;5018830;28;20449;-77
2022/06/20 03:59:27;;;;;;;7.55;3.50;;;;;;;16.09;60.68;95041.28;5016279;28;20104;-77
2022/06/20 04:02:00;;;;;;;;;;;;;;;16.23;60.60;95041.56;5030044;28;20115;-77
2022/06/20 04:04:32;;;;;;;6.50;2.75;;;;;;;17.22;56.35;95038.38;5029102;28;19940;-76
2022/06/20 04:07:02;;;;;;;4.05;2.80;;;;;;;19.68;49.44;95033.66;5027235;28;20029;-76
2022/06/20 04:12:51;;;;;;;2.85;2.22;;;;;;;25.07;36.06;95024.84;5027752;28;20044;-76
2022/06/20 04:15:26;;;;;;;6.40;2.40;;;;;;;26.72;32.55;95013.97;5026624;28;20128;-77
2022/06/20 04:20:48;;;;;;;9.68;2.38;;;;;;;30.43;27.27;95004.28;5028114;28;20047;-77
2022/06/20 04:23:27;;;;;;;9.68;2.42;;;;;;;31.87;25.67;95008.31;5011823;28;20034;-77
2022/06/20 04:25:57;;;;;;;13.63;2.65;;;;;;;33.20;23.84;95006.84;5018568;28;20042;-78
2022/06/20 04:28:22;;;;;;;7.57;2.35;;;;;;;34.48;22.25;95013.13;5045983;28;20029;-77
2022/06/20 04:30:58;;;;;;;12.13;2.55;;;;;;;35.61;21.08;95005.63;5032030;28;20041;-76
2022/06/20 04:33:41;;;;;;;4.70;1.80;;;;;;;36.69;19.76;95010.41;5015767;28;20033;-76
2022/06/20 04:36:17;;;;;;;7.70;1.70;;;;;;;37.50;18.51;95016.53;5014200;28;20025;-76
2022/06/20 04:39:00;;;;;;;9.50;1.98;;;;;;;38.58;17.39;95011.63;5014773;28;20120;-76
2022/06/20 04:41:40;;;;;;;5.35;2.00;;;;;;;39.38;16.63;95013.66;5014619;28;20107;-76
2022/06/20 04:44:14;;;;;;;18.67;2.20;;;;;;;40.13;15.79;95012.41;4991091;28;20030;-76
2022/06/20 04:46:43;;;;;;;2.80;1.85;;;;;;;40.81;15.40;95009.09;5029760;28;20096;-78
2022/06/20 04:49:19;;;;;;;6.93;1.67;;;;;;;41.40;14.52;95000.03;5030636;28;20095;-77
2022/06/20 04:51:46;;;;;;;5.85;2.53;;;;;;;41.96;14.32;94994.34;5013470;28;20042;-77
2022/06/20 04:54:16;;;;;;;5.95;2.00;;;;;;;42.37;13.76;94990.13;5030779;28;20030;-75
2022/06/20 04:56:42;;;;;;;2.33;1.60;;;;;;;42.61;13.23;94988.66;5014324;28;20037;-77
2022/06/20 04:59:11;;;;;;;5.75;1.92;;;;;;;43.31;12.92;94990.50;5029990;28;20044;-77
2022/06/20 05:01:37;;;;;;;6.18;1.85;;;;;;;43.71;12.96;94990.00;5026330;28;20048;-77
2022/06/20 05:04:22;;;;;;;9.25;1.50;;;;;;;44.16;12.43;94986.16;5013900;28;20505;-78
2022/06/20 05:06:48;;;;;;;5.28;1.85;;;;;;;44.28;12.25;94983.34;5031375;28;20035;-77
2022/06/20 05:09:23;;;;;;;5.85;2.08;;;;;;;44.58;12.09;94979.13;5031575;28;20030;-78
2022/06/20 05:11:52;;;;;;;4.47;2.03;;;;;;;44.87;11.91;94972.53;5031221;28;20075;-77
2022/06/20 05:14:20;;;;;;;11.23;1.88;;;;;;;45.36;11.47;94975.34;5031272;28;20038;-78
2022/06/20 05:16:49;;;;;;;5.15;2.03;;;;;;;45.98;11.14;94980.63;5030288;28;20037;-77
2022/06/20 05:19:40;;;;;;;6.20;2.10;;;;;;;46.60;10.70;94991.31;4999296;28;20029;-78
2022/06/20 05:22:15;;;;;;;4.00;1.40;;;;;;;46.92;10.46;94983.59;5027498;28;20049;-78
2022/06/20 05:24:40;;;;;;;4.05;1.80;;;;;;;47.43;10.28;94982.75;5014280;28;20042;-77
2022/06/20 05:27:21;;;;;;;5.50;1.70;;;;;;;47.67;9.87;94980.75;5014428;28;20389;-78
2022/06/20 05:29:46;;;;;;;7.78;1.98;;;;;;;47.67;9.66;94982.75;5032523;28;20500;-78
2022/06/20 05:32:15;;;;;;;2.97;1.50;;;;;;;48.06;9.61;94983.56;5015039;28;20037;-78
2022/06/20 05:34:44;;;;;;;10.85;2.42;;;;;;;48.13;9.75;94983.94;5008910;28;20026;-78
2022/06/20 05:37:13;;;;;;;7.15;1.88;;;;;;;48.34;9.72;94981.34;5031985;28;20045;-77
2022/06/20 05:40:10;;;;;;;8.80;1.70;;;;;;;48.63;9.34;94978.59;5032895;28;20037;-78
2022/06/20 05:42:36;;;;;;;4.65;1.75;;;;;;;48.55;9.19;94982.97;5031952;28;20044;-78
2022/06/20 05:45:11;;;;;;;5.75;1.80;;;;;;;48.72;9.26;94971.47;5030283;28;20618;-78
2022/06/20 05:47:37;;;;;;;2.17;1.80;;;;;;;48.98;9.16;94980.69;5015425;28;20033;-78
2022/06/20 05:50:14;;;;;;;6.68;1.77;;;;;;;49.13;9.12;94981.41;5033045;28;20033;-79
2022/06/20 05:52:40;;;;;;;6.82;1.95;;;;;;;49.23;9.21;94980.06;5034613;28;20045;-78
2022/06/20 05:55:22;;;;;;;13.82;1.92;;;;;;;49.39;8.59;94966.97;5020766;28;20033;-78
2022/06/20 05:57:48;;;;;;;17.55;2.13;;;;;;;49.48;9.12;94975.16;5033039;28;20527;-78
2022/06/20 06:00:21;;;;;;;14.82;2.63;;;;;;;49.49;8.58;94968.38;4998630;28;20041;-77
2022/06/20 06:02:57;;;;;;;19.80;2.30;;;;;;;49.66;9.20;94965.84;5007723;28;20025;-78
2022/06/20 06:06:04;;;;;;;4.20;1.98;;;;;;;50.01;8.48;94974.06;5015597;28;20412;-78
2022/06/20 06:08:42;;;;;;;7.03;2.53;;;;;;;49.77;9.14;94969.50;5023858;28;20045;-78
2022/06/20 06:11:15;;;;;;;7.65;2.00;;;;;;;50.30;8.68;94968.34;5031880;28;20029;-78
2022/06/20 06:13:46;;;;;;;7.65;2.88;;;;;;;50.04;8.49;94967.56;5032526;28;20048;-78
2022/06/20 06:19:41;;;;;;;6.80;3.33;;;;;;;49.94;8.48;94955.84;5037101;28;20040;-78
2022/06/20 06:22:37;;;;;;;13.32;2.70;;;;;;;49.98;8.64;94961.94;5033057;28;20068;-78
2022/06/20 06:25:18;;;;;;;11.93;2.30;;;;;;;49.69;8.57;94954.56;5032629;28;20029;-78
2022/06/20 06:27:44;;;;;;;7.63;2.20;;;;;;;49.99;9.28;94952.41;5014492;28;20497;-78
2022/06/20 06:30:40;;;;;;;11.45;2.35;;;;;;;49.10;8.93;94946.47;4998377;28;20092;-78
2022/06/20 06:33:20;;;;;;;11.98;2.42;;;;;;;48.76;8.65;94955.47;5022277;28;20033;-78
2022/06/20 06:35:49;;;;;;;6.32;2.00;;;;;;;48.57;9.23;94946.63;5031829;28;20508;-77
2022/06/20 06:38:35;;;;;;;17.42;2.30;;;;;;;47.96;9.34;94938.75;5012010;28;20038;-78
2022/06/20 06:41:01;;;;;;;7.47;2.28;;;;;;;47.40;9.83;94934.88;4998187;28;20065;-77
2022/06/20 06:43:38;;;;;;;5.25;2.17;;;;;;;46.76;9.75;94926.13;5029191;28;20034;-77
2022/06/20 06:46:06;;;;;;;8.88;2.17;;;;;;;46.29;10.39;94925.50;5011861;28;20048;-77
2022/06/20 06:48:37;;;;;;;12.70;2.40;;;;;;;46.44;10.26;94917.38;5030510;28;20025;-78
2022/06/20 06:51:02;;;;;;;8.90;2.47;;;;;;;45.71;10.75;94918.19;5011789;28;20033;-77
2022/06/20 06:53:39;;;;;;;12.00;2.42;;;;;;;45.62;10.90;94915.44;5030050;28;20515;-77
2022/06/20 06:56:18;;;;;;;8.98;2.85;;;;;;;45.77;10.87;94899.88;5011469;28;20608;-77
2022/06/20 06:58:48;;;;;;;5.88;2.70;;;;;;;45.09;11.41;94910.16;5029493;28;20026;-81
2022/06/20 07:01:18;;;;;;;17.75;3.70;;;;;;;44.84;11.20;94907.59;5005150;28;20029;-77
2022/06/20 07:03:50;;;;;;;4.70;2.95;;;;;;;44.82;11.41;94899.06;5012706;28;20036;-77
2022/06/20 07:06:24;;;;;;;10.38;3.03;;;;;;;44.52;11.43;94890.41;5029131;28;20040;-77
2022/06/20 07:08:54;;;;;;;17.15;2.90;;;;;;;44.34;11.58;94882.06;5012752;28;20034;-79
2022/06/20 07:11:24;;;;;;;6.18;2.90;;;;;;;43.60;12.19;94890.97;5011777;28;20052;-77
2022/06/20 07:14:03;;;;;;;8.90;3.00;;;;;;;42.67;12.89;94888.50;5027925;28;20045;-77
2022/06/20 07:16:36;;;;;;;8.00;3.10;;;;;;;41.96;13.07;94885.06;5024379;28;20285;-77
2022/06/20 07:19:02;;;;;;;6.50;2.90;;;;;;;41.35;14.01;94880.47;5024746;28;20501;-77
2022/06/20 07:21:28;;;;;;;6.72;3.35;;;;;;;40.93;14.61;94883.00;5027816;28;20549;-77
2022/06/20 07:24:00;;;;;;;6.78;3.00;;;;;;;40.29;15.08;94878.19;4995062;28;20032;-77
2022/06/20 07:26:27;;;;;;;14.40;3.35;;;;;;;39.68;15.26;94882.09;5027474;28;20110;-77
2022/06/20 07:29:00;;;;;;;14.23;3.50;;;;;;;39.12;15.63;94870.28;5028179;28;20037;-78
2022/06/20 07:31:30;;;;;;;11.45;3.53;;;;;;;38.59;17.51;94869.13;5003318;28;20025;-77
2022/06/20 07:34:01;;;;;;;10.18;3.47;;;;;;;37.93;16.84;94873.06;5028375;28;20028;-77
2022/06/20 07:36:33;;;;;;;13.38;3.22;;;;;;;37.37;17.55;94871.72;5026519;28;20057;-76
2022/06/20 07:39:05;;;;;;;7.30;3.65;;;;;;;36.77;18.20;94876.41;5026225;28;20107;-77
2022/06/20 07:41:45;;;;;;;11.95;4.20;;;;;;;35.58;19.64;94873.88;5010637;28;20136;-77
2022/06/20 07:44:23;;;;;;;7.47;3.30;;;;;;;35.16;19.92;94872.78;5027963;28;20982;-77
2022/06/20 07:47:21;;;;;;;15.32;4.18;;;;;;;34.88;20.97;94878.97;4996564;28;20030;-77
2022/06/20 07:49:49;;;;;;;9.52;4.30;;;;;;;34.62;20.76;94885.47;5018328;28;20045;-77
2022/06/20 07:52:28;;;;;;;12.00;3.90;;;;;;;34.34;21.14;94878.06;5011272;28;20028;-77
2022/06/20 07:54:56;;;;;;;12.80;3.72;;;;;;;34.17;21.28;94879.56;5011449;28;20405;-77
2022/06/20 07:57:33;;;;;;;6.63;3.53;;;;;;;33.95;20.90;94878.72;5026946;28;20137;-77
2022/06/20 08:00:25;;;;;;;16.60;3.78;;;;;;;33.77;21.38;94871.66;5010673;28;20037;-76
2022/06/20 08:03:02;;;;;;;20.13;4.20;;;;;;;33.52;21.92;94871.53;5030978;28;20025;-77
2022/06/20 08:05:40;;;;;;;7.68;3.90;;;;;;;33.14;22.28;94873.59;5047936;28;20037;-77
2022/06/20 08:08:13;;;;;;;10.10;4.03;;;;;;;32.93;22.96;94868.81;5030996;28;20057;-76
2022/06/20 08:10:50;;;;;;;11.00;4.20;;;;;;;32.71;23.35;94862.47;5032304;28;20030;-77
2022/06/20 08:13:22;;;;;;;14.73;4.10;;;;;;;32.25;23.98;94857.38;5015251;28;20025;-77
2022/06/20 08:16:02;;;;;;;7.78;3.90;;;;;;;31.51;25.02;94856.47;5015408;28;20048;-77
2022/06/20 08:18:28;;;;;;;10.32;4.20;;;;;;;31.51;24.58;94846.50;5031427;28;20163;-77
2022/06/20 08:21:02;;;;;;;41.03;4.07;;;;;;;31.55;25.67;94851.91;5032998;28;20029;-82
2022/06/20 08:23:49;;;;;;;32.47;4.00;;;;;;;31.48;29.12;94857.97;5017476;28;20509;-81
2022/06/20 08:26:21;;;;;;;17.88;4.10;;;;;;;31.18;30.30;94854.47;5040736;23;20064;-83
2022/06/20 08:29:08;;;;;;;10.82;3.17;;;;;;;30.85;25.08;94855.09;5063427;28;20490;-81
2022/06/20 08:31:45;;;;;;;6.20;3.67;;;;;;;29.57;26.45;94859.63;5032892;28;20026;-81
2022/06/20 08:34:35;;;;;;;15.32;4.15;;;;;;;28.86;27.70;94857.22;5023777;28;20072;-81
2022/06/20 08:37:28;;;;;;;11.10;3.50;;;;;;;29.01;29.21;94861.81;5009445;28;20504;-82
2022/06/20 08:40:02;;;;;;;18.10;3.38;;;;;;;28.95;27.58;94853.25;5013110;28;20058;-83
2022/06/20 08:43:02;;;;;;;9.40;3.28;;;;;;;29.16;28.83;94857.56;5015736;28;20061;-82
2022/06/20 08:45:40;;;;;;;9.50;2.70;;;;;;;28.96;25.97;94856.69;5032299;28;20031;-82
2022/06/20 08:48:29;;;;;;;16.25;3.38;;;;;;;28.75;27.14;94853.50;5026814;28;20038;-83
2022/06/20 08:51:13;;;;;;;9.57;3.30;;;;;;;28.69;27.33;94853.78;5026854;28;20041;-82
2022/06/20 08:53:57;;;;;;;9.20;3.72;;;;;;;28.66;30.04;94851.78;5025477;28;20052;-83
2022/06/20 08:57:02;;;;;;;6.05;2.92;;;;;;;28.14;27.63;94848.50;5043054;28;20033;-82
2022/06/20 08:59:38;;;;;;;10.18;2.45;;;;;;;28.22;28.55;94850.25;5038344;28;20132;-82
2022/06/20 09:02:10;;;;;;;7.97;2.85;;;;;;;28.35;28.09;94847.19;5024502;28;20029;-80
2022/06/20 09:04:40;;;;;;;;;;;;;;;28.47;26.52;94849.00;5025801;28;20124;-80
2022/06/20 09:07:08;;;;;;;4.15;2.53;;;;;;;28.14;26.74;94835.13;5000391;28;19975;-80
2022/06/20 09:09:49;;;;;;;7.97;2.05;;;;;;;28.25;30.01;94842.31;5033749;28;20087;-81
2022/06/20 09:12:48;;;;;;;2.65;1.55;;;;;;;28.17;25.56;94837.16;5033811;28;20034;-80
2022/06/20 09:15:43;;;;;;;3.53;1.70;;;;;;;28.15;23.84;94836.69;5032377;28;20037;-81
2022/06/20 09:18:19;;;;;;;7.70;1.75;;;;;;;28.17;23.98;94832.56;5016104;28;20040;-81
2022/06/20 09:20:57;;;;;;;6.80;1.83;;;;;;;28.26;23.82;94832.44;5026467;28;20136;-81
2022/06/20 09:24:04;;;;;;;7.30;2.10;;;;;;;28.22;23.99;94828.84;5026088;28;20373;-81
2022/06/20 09:26:34;;;;;;;4.95;1.60;;;;;;;28.09;23.91;94818.22;5034109;28;20306;-81
2022/06/20 09:29:09;;;;;;;5.10;2.00;;;;;;;27.90;24.33;94817.31;5014922;28;20116;-77
2022/06/20 09:31:37;;;;;;;4.78;1.65;;;;;;;27.69;24.70;94804.19;5031144;28;20519;-77
2022/06/20 09:34:19;;;;;;;3.38;1.80;;;;;;;27.81;25.24;94806.78;5030744;28;20067;-77
2022/06/20 09:36:54;;;;;;;;;;;;;;;27.65;24.16;94811.28;5032616;28;20444;-77
2022/06/20 09:39:31;;;;;;;5.50;1.90;;;;;;;27.56;24.63;94811.44;5030828;28;19935;-77
2022/06/20 09:42:30;;;;;;;4.72;1.73;;;;;;;27.74;23.92;94825.31;5033971;28;20037;-78
2022/06/20 09:45:05;;;;;;;3.67;1.85;;;;;;;27.59;24.38;94816.09;5037212;28;20026;-78
2022/06/20 09:47:39;;;;;;;7.82;1.83;;;;;;;27.68;24.13;94802.63;5028036;28;20065;-78
2022/06/20 09:50:44;;;;;;;1.95;1.83;;;;;;;27.67;23.98;94806.41;5032166;28;20037;-78
2022/06/20 09:53:22;;;;;;;4.03;1.52;;;;;;;27.31;24.74;94820.59;5009169;28;20038;-77
2022/06/20 09:55:59;;;;;;;2.47;1.42;;;;;;;27.12;24.72;94818.53;5032320;28;20021;-78
2022/06/20 09:58:32;;;;;;;4.10;1.50;;;;;;;27.04;23.81;94812.22;5029762;28;20037;-77
2022/06/20 10:01:12;;;;;;;6.80;1.55;;;;;;;27.20;23.16;94806.97;5031082;28;20025;-78
2022/06/20 10:03:56;;;;;;;4.90;1.60;;;;;;;27.34;23.39;94796.69;5013542;28;20401;-77
2022/06/20 10:06:48;;;;;;;2.35;1.58;;;;;;;27.24;23.73;94802.50;5031418;28;20056;-78
2022/06/20 10:09:26;;;;;;;1.98;1.80;;;;;;;27.18;23.89;94796.63;5030038;28;20362;-78
2022/06/20 10:12:02;;;;;;;4.53;1.67;;;;;;;27.29;23.68;94791.56;5032111;28;20033;-77
2022/06/20 10:14:59;;;;;;;3.38;1.40;;;;;;;27.32;23.21;94790.91;5005560;28;20053;-78
2022/06/20 10:17:52;;;;;;;2.92;1.85;;;;;;;27.23;22.90;94790.28;5012061;28;20056;-77
2022/06/20 10:20:32;;;;;;;4.20;1.70;;;;;;;27.07;23.62;94797.41;5030431;28;20108;-78
2022/06/20 10:23:18;;;;;;;2.45;1.65;;;;;;;27.03;23.03;94794.66;5021678;28;20025;-78
2022/06/20 10:26:07;;;;;;;7.43;1.58;;;;;;;27.15;23.48;94801.84;5021067;28;20485;-77
2022/06/20 10:28:48;;;;;;;5.50;1.67;;;;;;;27.20;22.67;94793.63;5021650;28;20063;-78
2022/06/20 10:31:28;;;;;;;4.28;1.70;;;;;;;27.20;21.77;94793.63;5029387;28;20489;-77
2022/06/20 10:34:07;;;;;;;3.00;1.60;;;;;;;27.26;21.87;94796.81;5021507;28;20429;-77
2022/06/20 10:36:49;;;;;;;4.00;1.50;;;;;;;27.18;22.80;94785.19;5031243;28;20037;-77
2022/06/20 10:39:34;;;;;;;;;;;;;;;27.23;21.86;94781.47;5030254;28;20986;-77
2022/06/20 10:42:13;;;;;;;1.70;1.50;;;;;;;27.18;22.30;94779.84;5029078;28;19923;-77
2022/06/20 10:47:36;;;;;;;5.05;1.60;;;;;;;27.04;22.14;94768.75;5064172;22;20063;-77
2022/06/20 10:50:22;;;;;;;1.60;1.50;;;;;;;27.07;21.46;94768.06;5017101;28;20029;-78
2022/06/20 10:53:16;;;;;;;2.30;1.30;;;;;;;27.11;20.02;94768.94;5017961;28;20064;-78
2022/06/20 10:56:12;;;;;;;1.52;1.42;;;;;;;27.17;20.57;94764.91;5037302;28;20048;-83
2022/06/20 10:59:03;;;;;;;3.80;1.40;;;;;;;27.22;22.49;94754.00;5052697;28;20167;-78
2022/06/20 11:01:46;;;;;;;1.33;1.23;;;;;;;27.18;22.61;94747.81;5050670;28;20389;-77
2022/06/20 11:04:44;;;;;;;1.40;1.30;;;;;;;27.14;23.75;94741.56;5018317;28;20029;-78
2022/06/20 11:07:15;;;;;;;1.63;1.52;;;;;;;26.98;23.68;94760.13;5035939;22;20081;-79
2022/06/20 11:09:44;;;;;;;2.97;1.75;;;;;;;26.86;24.11;94749.50;5030895;28;20476;-74
2022/06/20 11:12:40;;;;;;;14.20;1.73;;;;;;;26.92;24.33;94746.25;5012732;28;20536;-73
2022/06/20 11:15:10;;;;;;;10.65;1.58;;;;;;;27.00;25.79;94741.13;5016443;28;20032;-74
2022/06/20 11:18:08;;;;;;;2.88;1.70;;;;;;;27.06;25.82;94729.13;5012089;28;20037;-73
2022/06/20 11:20:56;;;;;;;4.72;1.95;;;;;;;27.11;24.94;94737.69;5019208;28;20108;-74
2022/06/20 11:23:28;;;;;;;1.38;1.27;;;;;;;27.14;23.92;94736.22;5011721;28;20138;-74
2022/06/20 11:26:14;;;;;;;6.20;1.88;;;;;;;27.11;24.41;94726.22;5012316;28;20069;-73
2022/06/20 11:28:52;;;;;;;13.95;1.90;;;;;;;27.11;25.20;94731.56;5011504;28;20037;-73
2022/06/20 11:31:36;;;;;;;5.97;1.55;;;;;;;27.01;23.90;94732.84;5027347;28;20434;-73
2022/06/20 11:34:31;;;;;;;3.33;1.55;;;;;;;26.71;25.02;94726.97;5011201;28;20040;-74
2022/06/20 11:37:00;;;;;;;2.40;1.55;;;;;;;26.51;25.06;94714.50;5028183;28;20083;-73
2022/06/20 11:39:29;;;;;;;1.63;1.52;;;;;;;26.60;25.41;94713.28;5030781;28;20030;-74
2022/06/20 11:42:01;;;;;;;1.65;1.55;;;;;;;26.50;24.53;94712.97;5030138;28;20469;-74
2022/06/20 11:44:57;;;;;;;3.40;1.67;;;;;;;26.43;24.89;94710.09;4996631;28;20384;-76
2022/06/20 11:47:43;;;;;;;2.58;1.67;;;;;;;26.44;25.55;94714.31;4991152;28;20474;-81
2022/06/20 11:50:24;;;;;;;2.05;1.77;;;;;;;26.09;26.09;94703.28;5014822;28;20110;-86
2022/06/20 11:53:30;;;;;;;1.70;1.60;;;;;;;26.06;26.41;94703.97;5001784;28;20069;-86
2022/06/20 11:56:18;;;;;;;3.65;1.88;;;;;;;26.07;25.64;94698.28;4987865;28;20041;-86
2022/06/20 11:59:05;;;;;;;2.05;1.75;;;;;;;25.83;25.87;94701.69;5033792;28;20519;-85
2022/06/20 12:01:41;;;;;;;7.45;1.85;;;;;;;25.75;25.64;94688.47;5035434;28;20522;-86
2022/06/20 12:05:00;;;;;;;1.67;1.58;;;;;;;25.76;26.12;94693.47;5001975;28;20080;-86
2022/06/20 12:07:43;;;;;;;1.90;1.77;;;;;;;25.80;27.91;94697.03;4978134;28;20101;-87
2022/06/20 12:10:40;;;;;;;4.45;1.50;;;;;;;25.77;26.58;94699.59;4989401;28;20038;-87
2022/06/20 12:13:06;;;;;;;1.60;1.50;;;;;;;25.66;25.96;94691.97;4998860;28;20063;-87
2022/06/20 12:15:40;;;;;;;2.00;1.40;;;;;;;25.76;25.85;94685.50;5016355;28;20046;-88
2022/06/20 12:18:13;;;;;;;5.15;1.80;;;;;;;25.90;25.34;94682.50;5028978;28;20037;-87
2022/06/20 12:23:51;;;;;;;6.88;1.45;;;;;;;26.15;26.02;94676.06;4998315;28;20111;-87
2022/06/20 12:26:42;;;;;;;6.03;2.08;;;;;;;26.13;25.68;94667.63;5001077;28;20044;-83
2022/06/20 12:29:20;;;;;;;6.53;1.33;;;;;;;26.23;26.10;94666.44;5030337;28;20037;-87
2022/06/20 12:31:55;;;;;;;2.00;1.73;;;;;;;25.97;25.83;94664.09;4997389;28;20037;-87
2022/06/20 12:34:30;;;;;;;4.68;1.55;;;;;;;26.06;26.21;94663.97;4981211;28;20471;-87